sensor_id;sensor_type;location;lat;lon;timestamp;P1;durP1;ratioP1;P2;durP2;ratioP2
21000;SDS011;10658;50.920;12.238;2022-11-04T00:01:04;9.20;;;5.82;;
21000;SDS011;10658;50.920;12.238;2022-11-04T00:05:06;12.90;;;7.68;;
21000;SDS011;10658;50.920;12.238;2022-11-04T00:09:08;11.43;;;7.15;;
21000;SDS011;10658;50.920;12.238;2022-11-04T00:13:12;13.18;;;7.25;;
21000;SDS011;10658;50.920;12.238;2022-11-04T00:17:13;11.32;;;7.68;;
21000;SDS011;10658;50.920;12.238;2022-11-04T00:21:21;11.45;;;7.80;;
21000;SDS011;10658;50.920;12.238;2022-11-04T00:25:41;13.13;;;7.88;;
21000;SDS011;10658;50.920;12.238;2022-11-04T00:30:02;14.80;;;9.00;;
21000;SDS011;10658;50.920;12.238;2022-11-04T00:34:04;12.18;;;7.60;;
21000;SDS011;10658;50.920;12.238;2022-11-04T00:38:05;12.73;;;8.73;;
21000;SDS011;10658;50.920;12.238;2022-11-04T00:42:06;13.25;;;7.63;;
21000;SDS011;10658;50.920;12.238;2022-11-04T00:46:07;14.50;;;8.38;;
21000;SDS011;10658;50.920;12.238;2022-11-04T00:50:08;10.82;;;7.05;;
21000;SDS011;10658;50.920;12.238;2022-11-04T00:54:09;13.05;;;7.93;;
21000;SDS011;10658;50.920;12.238;2022-11-04T00:58:10;12.20;;;6.47;;
21000;SDS011;10658;50.920;12.238;2022-11-04T01:02:11;13.35;;;7.32;;
21000;SDS011;10658;50.920;12.238;2022-11-04T01:06:13;10.98;;;7.47;;
21000;SDS011;10658;50.920;12.238;2022-11-04T01:10:14;7.75;;;6.20;;
21000;SDS011;10658;50.920;12.238;2022-11-04T01:14:16;9.07;;;5.75;;
21000;SDS011;10658;50.920;12.238;2022-11-04T01:18:17;12.93;;;6.07;;
21000;SDS011;10658;50.920;12.238;2022-11-04T01:22:18;10.27;;;6.18;;
21000;SDS011;10658;50.920;12.238;2022-11-04T01:26:20;9.18;;;5.57;;
21000;SDS011;10658;50.920;12.238;2022-11-04T01:30:24;9.07;;;5.97;;
21000;SDS011;10658;50.920;12.238;2022-11-04T01:34:25;12.13;;;6.05;;
21000;SDS011;10658;50.920;12.238;2022-11-04T01:38:26;7.75;;;5.55;;
21000;SDS011;10658;50.920;12.238;2022-11-04T01:42:28;11.75;;;6.00;;
21000;SDS011;10658;50.920;12.238;2022-11-04T01:46:37;10.20;;;6.20;;
21000;SDS011;10658;50.920;12.238;2022-11-04T01:50:42;11.85;;;5.53;;
21000;SDS011;10658;50.920;12.238;2022-11-04T01:54:44;8.25;;;5.65;;
21000;SDS011;10658;50.920;12.238;2022-11-04T01:58:48;10.52;;;5.63;;
21000;SDS011;10658;50.920;12.238;2022-11-04T02:02:53;8.73;;;5.20;;
21000;SDS011;10658;50.920;12.238;2022-11-04T02:07:03;10.02;;;5.60;;
21000;SDS011;10658;50.920;12.238;2022-11-04T02:11:06;9.70;;;6.13;;
21000;SDS011;10658;50.920;12.238;2022-11-04T02:15:07;9.38;;;6.47;;
21000;SDS011;10658;50.920;12.238;2022-11-04T02:41:39;12.40;;;6.60;;
21000;SDS011;10658;50.920;12.238;2022-11-04T02:45:42;11.27;;;6.18;;
21000;SDS011;10658;50.920;12.238;2022-11-04T02:50:06;10.20;;;5.90;;
21000;SDS011;10658;50.920;12.238;2022-11-04T02:54:27;14.10;;;6.85;;
21000;SDS011;10658;50.920;12.238;2022-11-04T02:58:35;13.10;;;6.40;;
21000;SDS011;10658;50.920;12.238;2022-11-04T03:02:42;12.80;;;6.53;;
21000;SDS011;10658;50.920;12.238;2022-11-04T03:06:46;12.65;;;7.43;;
21000;SDS011;10658;50.920;12.238;2022-11-04T03:10:51;10.73;;;6.65;;
21000;SDS011;10658;50.920;12.238;2022-11-04T03:14:56;11.25;;;6.18;;
21000;SDS011;10658;50.920;12.238;2022-11-04T03:19:18;10.88;;;5.90;;
21000;SDS011;10658;50.920;12.238;2022-11-04T03:23:26;12.15;;;6.95;;
21000;SDS011;10658;50.920;12.238;2022-11-04T03:27:32;10.93;;;6.40;;
21000;SDS011;10658;50.920;12.238;2022-11-04T03:31:38;11.70;;;6.40;;
21000;SDS011;10658;50.920;12.238;2022-11-04T03:35:53;7.50;;;5.53;;
21000;SDS011;10658;50.920;12.238;2022-11-04T03:39:54;8.25;;;6.30;;
21000;SDS011;10658;50.920;12.238;2022-11-04T03:43:56;8.27;;;5.55;;
21000;SDS011;10658;50.920;12.238;2022-11-04T03:47:57;8.10;;;6.28;;
21000;SDS011;10658;50.920;12.238;2022-11-04T03:51:59;7.28;;;5.32;;
21000;SDS011;10658;50.920;12.238;2022-11-04T03:56:09;7.00;;;4.65;;
21000;SDS011;10658;50.920;12.238;2022-11-04T04:00:20;6.70;;;4.72;;
21000;SDS011;10658;50.920;12.238;2022-11-04T04:08:39;7.13;;;4.20;;
21000;SDS011;10658;50.920;12.238;2022-11-04T04:12:48;6.70;;;4.28;;
21000;SDS011;10658;50.920;12.238;2022-11-04T04:16:49;5.93;;;4.25;;
21000;SDS011;10658;50.920;12.238;2022-11-04T04:20:53;4.90;;;4.00;;
21000;SDS011;10658;50.920;12.238;2022-11-04T04:24:58;6.25;;;4.35;;
21000;SDS011;10658;50.920;12.238;2022-11-04T04:29:24;4.70;;;3.63;;
21000;SDS011;10658;50.920;12.238;2022-11-04T04:33:27;6.70;;;4.10;;
21000;SDS011;10658;50.920;12.238;2022-11-04T04:37:30;8.57;;;3.75;;
21000;SDS011;10658;50.920;12.238;2022-11-04T04:41:31;5.15;;;3.35;;
21000;SDS011;10658;50.920;12.238;2022-11-04T04:45:51;6.25;;;3.78;;
21000;SDS011;10658;50.920;12.238;2022-11-04T04:49:56;5.03;;;4.07;;
21000;SDS011;10658;50.920;12.238;2022-11-04T04:53:58;5.82;;;3.67;;
21000;SDS011;10658;50.920;12.238;2022-11-04T04:58:00;5.10;;;3.55;;
21000;SDS011;10658;50.920;12.238;2022-11-04T05:02:01;6.63;;;3.95;;
21000;SDS011;10658;50.920;12.238;2022-11-04T05:06:03;5.93;;;3.40;;
21000;SDS011;10658;50.920;12.238;2022-11-04T05:10:03;7.55;;;3.47;;
21000;SDS011;10658;50.920;12.238;2022-11-04T05:14:06;6.90;;;4.07;;
21000;SDS011;10658;50.920;12.238;2022-11-04T05:18:07;6.90;;;3.50;;
21000;SDS011;10658;50.920;12.238;2022-11-04T05:22:08;6.18;;;3.85;;
21000;SDS011;10658;50.920;12.238;2022-11-04T05:26:11;4.35;;;3.22;;
21000;SDS011;10658;50.920;12.238;2022-11-04T05:30:15;4.65;;;3.95;;
21000;SDS011;10658;50.920;12.238;2022-11-04T05:34:16;8.25;;;4.15;;
21000;SDS011;10658;50.920;12.238;2022-11-04T05:38:17;6.13;;;3.97;;
21000;SDS011;10658;50.920;12.238;2022-11-04T05:42:18;5.82;;;3.80;;
21000;SDS011;10658;50.920;12.238;2022-11-04T05:46:19;5.28;;;3.97;;
21000;SDS011;10658;50.920;12.238;2022-11-04T05:50:21;5.05;;;4.30;;
21000;SDS011;10658;50.920;12.238;2022-11-04T05:54:22;6.35;;;4.15;;
21000;SDS011;10658;50.920;12.238;2022-11-04T05:58:22;6.43;;;4.10;;
21000;SDS011;10658;50.920;12.238;2022-11-04T06:02:23;6.40;;;4.38;;
21000;SDS011;10658;50.920;12.238;2022-11-04T06:06:25;6.30;;;4.90;;
21000;SDS011;10658;50.920;12.238;2022-11-04T06:10:28;6.80;;;4.43;;
21000;SDS011;10658;50.920;12.238;2022-11-04T06:14:29;5.75;;;4.63;;
21000;SDS011;10658;50.920;12.238;2022-11-04T06:18:30;7.05;;;4.63;;
21000;SDS011;10658;50.920;12.238;2022-11-04T06:22:32;7.50;;;4.65;;
21000;SDS011;10658;50.920;12.238;2022-11-04T06:26:33;7.03;;;5.03;;
21000;SDS011;10658;50.920;12.238;2022-11-04T06:30:34;7.20;;;4.35;;
21000;SDS011;10658;50.920;12.238;2022-11-04T06:34:36;6.85;;;4.72;;
21000;SDS011;10658;50.920;12.238;2022-11-04T06:38:37;7.93;;;5.00;;
21000;SDS011;10658;50.920;12.238;2022-11-04T06:42:38;7.57;;;5.15;;
21000;SDS011;10658;50.920;12.238;2022-11-04T06:46:40;7.57;;;5.10;;
21000;SDS011;10658;50.920;12.238;2022-11-04T06:50:42;5.68;;;4.32;;
21000;SDS011;10658;50.920;12.238;2022-11-04T06:54:43;7.28;;;4.88;;
21000;SDS011;10658;50.920;12.238;2022-11-04T06:58:48;5.65;;;4.45;;
21000;SDS011;10658;50.920;12.238;2022-11-04T07:07:14;7.53;;;5.63;;
21000;SDS011;10658;50.920;12.238;2022-11-04T07:11:41;8.27;;;5.32;;
21000;SDS011;10658;50.920;12.238;2022-11-04T07:15:44;7.50;;;5.82;;
21000;SDS011;10658;50.920;12.238;2022-11-04T07:19:45;6.40;;;5.00;;
21000;SDS011;10658;50.920;12.238;2022-11-04T07:23:46;7.20;;;4.78;;
21000;SDS011;10658;50.920;12.238;2022-11-04T07:27:47;8.73;;;5.82;;
21000;SDS011;10658;50.920;12.238;2022-11-04T07:31:48;6.45;;;4.30;;
21000;SDS011;10658;50.920;12.238;2022-11-04T07:35:49;5.78;;;3.78;;
21000;SDS011;10658;50.920;12.238;2022-11-04T07:39:50;4.50;;;3.13;;
21000;SDS011;10658;50.920;12.238;2022-11-04T07:43:51;4.32;;;3.45;;
21000;SDS011;10658;50.920;12.238;2022-11-04T07:47:52;3.70;;;3.22;;
21000;SDS011;10658;50.920;12.238;2022-11-04T07:51:54;5.00;;;3.88;;
21000;SDS011;10658;50.920;12.238;2022-11-04T07:55:55;8.40;;;5.35;;
21000;SDS011;10658;50.920;12.238;2022-11-04T07:59:57;11.57;;;5.57;;
21000;SDS011;10658;50.920;12.238;2022-11-04T08:03:59;5.15;;;3.67;;
21000;SDS011;10658;50.920;12.238;2022-11-04T08:08:01;3.92;;;2.47;;
21000;SDS011;10658;50.920;12.238;2022-11-04T08:12:03;5.53;;;2.28;;
21000;SDS011;10658;50.920;12.238;2022-11-04T08:16:12;2.65;;;2.22;;
21000;SDS011;10658;50.920;12.238;2022-11-04T08:20:15;3.13;;;2.17;;
21000;SDS011;10658;50.920;12.238;2022-11-04T08:24:16;3.88;;;2.28;;
21000;SDS011;10658;50.920;12.238;2022-11-04T08:28:17;2.92;;;2.05;;
21000;SDS011;10658;50.920;12.238;2022-11-04T08:32:19;2.25;;;2.03;;
21000;SDS011;10658;50.920;12.238;2022-11-04T08:36:21;2.80;;;2.13;;
21000;SDS011;10658;50.920;12.238;2022-11-04T08:40:25;4.13;;;2.53;;
21000;SDS011;10658;50.920;12.238;2022-11-04T08:44:26;2.35;;;2.05;;
21000;SDS011;10658;50.920;12.238;2022-11-04T08:48:27;2.60;;;1.70;;
21000;SDS011;10658;50.920;12.238;2022-11-04T08:52:28;2.97;;;1.80;;
21000;SDS011;10658;50.920;12.238;2022-11-04T08:56:31;2.80;;;1.90;;
21000;SDS011;10658;50.920;12.238;2022-11-04T09:00:35;1.83;;;1.38;;
21000;SDS011;10658;50.920;12.238;2022-11-04T09:04:37;2.67;;;1.52;;
21000;SDS011;10658;50.920;12.238;2022-11-04T09:08:37;2.33;;;1.48;;
21000;SDS011;10658;50.920;12.238;2022-11-04T09:12:40;2.47;;;1.70;;
21000;SDS011;10658;50.920;12.238;2022-11-04T09:16:42;3.53;;;1.55;;
21000;SDS011;10658;50.920;12.238;2022-11-04T09:20:43;2.10;;;1.40;;
21000;SDS011;10658;50.920;12.238;2022-11-04T09:24:44;1.98;;;1.23;;
21000;SDS011;10658;50.920;12.238;2022-11-04T09:28:46;2.00;;;1.33;;
21000;SDS011;10658;50.920;12.238;2022-11-04T09:32:46;1.63;;;1.48;;
21000;SDS011;10658;50.920;12.238;2022-11-04T09:36:47;1.77;;;1.25;;
21000;SDS011;10658;50.920;12.238;2022-11-04T09:40:48;1.63;;;1.20;;
21000;SDS011;10658;50.920;12.238;2022-11-04T09:44:58;3.10;;;0.80;;
21000;SDS011;10658;50.920;12.238;2022-11-04T09:49:04;1.00;;;0.80;;
21000;SDS011;10658;50.920;12.238;2022-11-04T09:53:14;1.42;;;0.85;;
21000;SDS011;10658;50.920;12.238;2022-11-04T09:57:23;3.70;;;2.50;;
21000;SDS011;10658;50.920;12.238;2022-11-04T10:14:10;1.63;;;0.90;;
21000;SDS011;10658;50.920;12.238;2022-11-04T10:23:22;3.03;;;1.10;;
21000;SDS011;10658;50.920;12.238;2022-11-04T10:27:32;1.45;;;0.80;;
21000;SDS011;10658;50.920;12.238;2022-11-04T10:31:37;0.93;;;0.73;;
21000;SDS011;10658;50.920;12.238;2022-11-04T10:35:41;0.93;;;0.68;;
21000;SDS011;10658;50.920;12.238;2022-11-04T10:39:47;0.95;;;0.80;;
21000;SDS011;10658;50.920;12.238;2022-11-04T10:48:11;6.57;;;3.65;;
21000;SDS011;10658;50.920;12.238;2022-11-04T10:52:22;2.42;;;1.58;;
21000;SDS011;10658;50.920;12.238;2022-11-04T11:00:31;1.13;;;0.70;;
21000;SDS011;10658;50.920;12.238;2022-11-04T11:04:34;1.52;;;1.33;;
21000;SDS011;10658;50.920;12.238;2022-11-04T12:06:46;1.92;;;0.80;;
21000;SDS011;10658;50.920;12.238;2022-11-04T12:11:09;1.27;;;0.77;;
21000;SDS011;10658;50.920;12.238;2022-11-04T12:15:31;1.60;;;0.73;;
21000;SDS011;10658;50.920;12.238;2022-11-04T12:37:45;2.38;;;0.90;;
21000;SDS011;10658;50.920;12.238;2022-11-04T12:46:51;2.25;;;0.93;;
21000;SDS011;10658;50.920;12.238;2022-11-04T13:03:28;1.65;;;1.10;;
21000;SDS011;10658;50.920;12.238;2022-11-04T13:07:39;3.80;;;0.98;;
21000;SDS011;10658;50.920;12.238;2022-11-04T13:12:14;4.47;;;1.13;;
21000;SDS011;10658;50.920;12.238;2022-11-04T13:16:48;1.95;;;0.90;;
21000;SDS011;10658;50.920;12.238;2022-11-04T13:21:04;5.85;;;1.70;;
21000;SDS011;10658;50.920;12.238;2022-11-04T13:29:30;5.28;;;2.05;;
21000;SDS011;10658;50.920;12.238;2022-11-04T13:38:30;3.20;;;1.00;;
21000;SDS011;10658;50.920;12.238;2022-11-04T13:42:22;2.47;;;1.10;;
21000;SDS011;10658;50.920;12.238;2022-11-04T13:46:36;4.03;;;1.10;;
21000;SDS011;10658;50.920;12.238;2022-11-04T13:50:37;7.13;;;1.38;;
21000;SDS011;10658;50.920;12.238;2022-11-04T13:55:15;7.43;;;2.63;;
21000;SDS011;10658;50.920;12.238;2022-11-04T13:59:22;7.88;;;2.53;;
21000;SDS011;10658;50.920;12.238;2022-11-04T14:20:31;2.80;;;1.98;;
21000;SDS011;10658;50.920;12.238;2022-11-04T14:24:34;6.20;;;2.30;;
21000;SDS011;10658;50.920;12.238;2022-11-04T14:28:35;5.57;;;2.75;;
21000;SDS011;10658;50.920;12.238;2022-11-04T14:32:38;4.25;;;1.40;;
21000;SDS011;10658;50.920;12.238;2022-11-04T14:36:40;2.22;;;1.23;;
21000;SDS011;10658;50.920;12.238;2022-11-04T14:40:49;2.80;;;1.35;;
21000;SDS011;10658;50.920;12.238;2022-11-04T14:44:53;2.03;;;1.10;;
21000;SDS011;10658;50.920;12.238;2022-11-04T14:48:55;4.57;;;2.15;;
21000;SDS011;10658;50.920;12.238;2022-11-04T14:53:00;7.50;;;2.60;;
21000;SDS011;10658;50.920;12.238;2022-11-04T15:01:14;25.20;;;10.95;;
21000;SDS011;10658;50.920;12.238;2022-11-04T15:05:20;14.02;;;6.55;;
21000;SDS011;10658;50.920;12.238;2022-11-04T15:09:33;15.38;;;6.93;;
21000;SDS011;10658;50.920;12.238;2022-11-04T15:13:47;16.35;;;5.65;;
21000;SDS011;10658;50.920;12.238;2022-11-04T15:17:50;11.60;;;4.97;;
21000;SDS011;10658;50.920;12.238;2022-11-04T15:21:51;11.27;;;4.93;;
21000;SDS011;10658;50.920;12.238;2022-11-04T15:25:52;11.95;;;5.22;;
21000;SDS011;10658;50.920;12.238;2022-11-04T15:29:54;5.18;;;2.75;;
21000;SDS011;10658;50.920;12.238;2022-11-04T15:33:58;7.10;;;1.90;;
21000;SDS011;10658;50.920;12.238;2022-11-04T15:38:01;2.08;;;1.35;;
21000;SDS011;10658;50.920;12.238;2022-11-04T15:42:03;4.30;;;1.67;;
21000;SDS011;10658;50.920;12.238;2022-11-04T15:46:26;3.22;;;1.48;;
21000;SDS011;10658;50.920;12.238;2022-11-04T15:50:29;5.40;;;1.20;;
21000;SDS011;10658;50.920;12.238;2022-11-04T15:58:32;5.18;;;2.97;;
21000;SDS011;10658;50.920;12.238;2022-11-04T16:02:34;5.50;;;2.88;;
21000;SDS011;10658;50.920;12.238;2022-11-04T16:06:39;7.20;;;3.03;;
21000;SDS011;10658;50.920;12.238;2022-11-04T16:10:42;7.47;;;3.50;;
21000;SDS011;10658;50.920;12.238;2022-11-04T16:14:47;6.20;;;3.00;;
21000;SDS011;10658;50.920;12.238;2022-11-04T16:18:51;8.77;;;3.42;;
21000;SDS011;10658;50.920;12.238;2022-11-04T16:23:00;6.25;;;3.40;;
21000;SDS011;10658;50.920;12.238;2022-11-04T16:27:02;5.00;;;2.75;;
21000;SDS011;10658;50.920;12.238;2022-11-04T16:31:08;3.53;;;2.80;;
21000;SDS011;10658;50.920;12.238;2022-11-04T16:35:28;4.63;;;3.30;;
21000;SDS011;10658;50.920;12.238;2022-11-04T16:39:29;4.82;;;3.03;;
21000;SDS011;10658;50.920;12.238;2022-11-04T16:43:31;4.07;;;2.30;;
21000;SDS011;10658;50.920;12.238;2022-11-04T16:47:32;5.97;;;2.90;;
21000;SDS011;10658;50.920;12.238;2022-11-04T16:51:37;4.72;;;2.75;;
21000;SDS011;10658;50.920;12.238;2022-11-04T16:55:39;3.97;;;2.38;;
21000;SDS011;10658;50.920;12.238;2022-11-04T16:59:41;4.93;;;3.08;;
21000;SDS011;10658;50.920;12.238;2022-11-04T17:03:45;4.18;;;2.47;;
21000;SDS011;10658;50.920;12.238;2022-11-04T17:07:46;5.25;;;2.60;;
21000;SDS011;10658;50.920;12.238;2022-11-04T17:11:47;4.95;;;2.92;;
21000;SDS011;10658;50.920;12.238;2022-11-04T17:15:48;5.07;;;2.55;;
21000;SDS011;10658;50.920;12.238;2022-11-04T17:19:50;5.65;;;2.00;;
21000;SDS011;10658;50.920;12.238;2022-11-04T17:23:51;2.90;;;2.30;;
21000;SDS011;10658;50.920;12.238;2022-11-04T17:27:52;6.50;;;2.33;;
21000;SDS011;10658;50.920;12.238;2022-11-04T17:31:53;3.47;;;2.20;;
21000;SDS011;10658;50.920;12.238;2022-11-04T17:35:54;5.72;;;2.20;;
21000;SDS011;10658;50.920;12.238;2022-11-04T17:39:56;2.30;;;1.80;;
21000;SDS011;10658;50.920;12.238;2022-11-04T17:43:56;5.00;;;1.90;;
21000;SDS011;10658;50.920;12.238;2022-11-04T17:48:03;4.00;;;2.53;;
21000;SDS011;10658;50.920;12.238;2022-11-04T17:52:05;6.50;;;2.53;;
21000;SDS011;10658;50.920;12.238;2022-11-04T17:56:15;4.70;;;2.63;;
21000;SDS011;10658;50.920;12.238;2022-11-04T18:00:17;3.53;;;1.75;;
21000;SDS011;10658;50.920;12.238;2022-11-04T18:04:19;2.08;;;1.67;;
21000;SDS011;10658;50.920;12.238;2022-11-04T18:08:22;2.65;;;1.92;;
21000;SDS011;10658;50.920;12.238;2022-11-04T18:12:24;4.93;;;1.85;;
21000;SDS011;10658;50.920;12.238;2022-11-04T18:16:37;2.10;;;1.52;;
21000;SDS011;10658;50.920;12.238;2022-11-04T18:20:39;2.80;;;1.73;;
21000;SDS011;10658;50.920;12.238;2022-11-04T18:24:40;3.92;;;1.85;;
21000;SDS011;10658;50.920;12.238;2022-11-04T18:28:42;2.53;;;1.63;;
21000;SDS011;10658;50.920;12.238;2022-11-04T18:32:43;2.47;;;2.17;;
21000;SDS011;10658;50.920;12.238;2022-11-04T18:36:44;4.28;;;2.20;;
21000;SDS011;10658;50.920;12.238;2022-11-04T18:40:47;3.00;;;2.17;;
21000;SDS011;10658;50.920;12.238;2022-11-04T18:44:48;3.83;;;1.90;;
21000;SDS011;10658;50.920;12.238;2022-11-04T18:48:49;3.10;;;2.15;;
21000;SDS011;10658;50.920;12.238;2022-11-04T18:52:54;4.07;;;1.92;;
21000;SDS011;10658;50.920;12.238;2022-11-04T18:56:56;3.67;;;2.30;;
21000;SDS011;10658;50.920;12.238;2022-11-04T19:00:56;2.88;;;2.20;;
21000;SDS011;10658;50.920;12.238;2022-11-04T19:04:57;5.65;;;2.25;;
21000;SDS011;10658;50.920;12.238;2022-11-04T19:08:59;2.70;;;2.03;;
21000;SDS011;10658;50.920;12.238;2022-11-04T19:13:01;2.90;;;2.38;;
21000;SDS011;10658;50.920;12.238;2022-11-04T19:17:18;2.60;;;2.20;;
21000;SDS011;10658;50.920;12.238;2022-11-04T19:21:20;4.35;;;2.90;;
21000;SDS011;10658;50.920;12.238;2022-11-04T19:25:22;4.97;;;2.42;;
21000;SDS011;10658;50.920;12.238;2022-11-04T19:29:23;4.53;;;2.55;;
21000;SDS011;10658;50.920;12.238;2022-11-04T19:33:25;3.35;;;2.58;;
21000;SDS011;10658;50.920;12.238;2022-11-04T19:37:26;4.97;;;2.30;;
21000;SDS011;10658;50.920;12.238;2022-11-04T19:41:27;4.15;;;2.60;;
21000;SDS011;10658;50.920;12.238;2022-11-04T19:45:47;4.25;;;2.75;;
21000;SDS011;10658;50.920;12.238;2022-11-04T19:49:48;3.00;;;2.65;;
21000;SDS011;10658;50.920;12.238;2022-11-04T19:53:49;3.90;;;3.30;;
21000;SDS011;10658;50.920;12.238;2022-11-04T19:57:50;3.20;;;2.38;;
21000;SDS011;10658;50.920;12.238;2022-11-04T20:01:51;4.53;;;2.92;;
21000;SDS011;10658;50.920;12.238;2022-11-04T20:05:51;7.60;;;4.07;;
21000;SDS011;10658;50.920;12.238;2022-11-04T20:09:52;5.85;;;4.57;;
21000;SDS011;10658;50.920;12.238;2022-11-04T20:13:53;12.15;;;5.55;;
21000;SDS011;10658;50.920;12.238;2022-11-04T20:17:54;5.90;;;4.28;;
21000;SDS011;10658;50.920;12.238;2022-11-04T20:21:55;7.75;;;5.35;;
21000;SDS011;10658;50.920;12.238;2022-11-04T20:26:03;9.63;;;5.07;;
21000;SDS011;10658;50.920;12.238;2022-11-04T20:30:09;10.00;;;5.70;;
21000;SDS011;10658;50.920;12.238;2022-11-04T20:34:11;11.00;;;5.22;;
21000;SDS011;10658;50.920;12.238;2022-11-04T20:38:13;11.45;;;5.63;;
21000;SDS011;10658;50.920;12.238;2022-11-04T20:42:14;11.18;;;5.28;;
21000;SDS011;10658;50.920;12.238;2022-11-04T20:46:17;6.25;;;4.63;;
21000;SDS011;10658;50.920;12.238;2022-11-04T20:50:19;8.77;;;5.90;;
21000;SDS011;10658;50.920;12.238;2022-11-04T20:54:20;7.20;;;4.85;;
21000;SDS011;10658;50.920;12.238;2022-11-04T20:58:21;8.85;;;6.25;;
21000;SDS011;10658;50.920;12.238;2022-11-04T21:02:22;6.85;;;4.93;;
21000;SDS011;10658;50.920;12.238;2022-11-04T21:06:24;8.10;;;4.80;;
21000;SDS011;10658;50.920;12.238;2022-11-04T21:14:43;7.80;;;4.55;;
21000;SDS011;10658;50.920;12.238;2022-11-04T21:24:34;5.32;;;4.20;;
21000;SDS011;10658;50.920;12.238;2022-11-04T21:28:35;9.18;;;5.00;;
21000;SDS011;10658;50.920;12.238;2022-11-04T21:32:35;8.88;;;5.28;;
21000;SDS011;10658;50.920;12.238;2022-11-04T21:36:36;11.32;;;4.93;;
21000;SDS011;10658;50.920;12.238;2022-11-04T21:40:38;6.82;;;4.60;;
21000;SDS011;10658;50.920;12.238;2022-11-04T21:44:39;8.82;;;5.82;;
21000;SDS011;10658;50.920;12.238;2022-11-04T21:48:40;7.32;;;4.93;;
21000;SDS011;10658;50.920;12.238;2022-11-04T21:52:41;7.45;;;5.38;;
21000;SDS011;10658;50.920;12.238;2022-11-04T21:56:42;8.15;;;5.00;;
21000;SDS011;10658;50.920;12.238;2022-11-04T22:00:43;6.65;;;4.35;;
21000;SDS011;10658;50.920;12.238;2022-11-04T22:04:44;5.15;;;4.60;;
21000;SDS011;10658;50.920;12.238;2022-11-04T22:08:46;5.30;;;4.25;;
21000;SDS011;10658;50.920;12.238;2022-11-04T22:12:51;7.65;;;5.82;;
21000;SDS011;10658;50.920;12.238;2022-11-04T22:16:52;7.82;;;4.95;;
21000;SDS011;10658;50.920;12.238;2022-11-04T22:20:54;8.57;;;5.28;;
21000;SDS011;10658;50.920;12.238;2022-11-04T22:24:55;8.10;;;5.75;;
21000;SDS011;10658;50.920;12.238;2022-11-04T22:29:02;8.32;;;6.05;;
21000;SDS011;10658;50.920;12.238;2022-11-04T22:33:03;7.57;;;4.93;;
21000;SDS011;10658;50.920;12.238;2022-11-04T22:37:05;6.15;;;4.65;;
21000;SDS011;10658;50.920;12.238;2022-11-04T22:41:06;10.98;;;4.80;;
21000;SDS011;10658;50.920;12.238;2022-11-04T22:45:08;6.38;;;4.72;;
21000;SDS011;10658;50.920;12.238;2022-11-04T22:49:09;6.82;;;4.32;;
21000;SDS011;10658;50.920;12.238;2022-11-04T22:53:11;8.52;;;4.15;;
21000;SDS011;10658;50.920;12.238;2022-11-04T22:57:14;4.82;;;3.78;;
21000;SDS011;10658;50.920;12.238;2022-11-04T23:01:15;5.85;;;4.18;;
21000;SDS011;10658;50.920;12.238;2022-11-04T23:05:17;4.68;;;3.63;;
21000;SDS011;10658;50.920;12.238;2022-11-04T23:09:18;6.88;;;4.30;;
21000;SDS011;10658;50.920;12.238;2022-11-04T23:13:19;4.82;;;3.67;;
21000;SDS011;10658;50.920;12.238;2022-11-04T23:17:38;4.32;;;3.40;;
21000;SDS011;10658;50.920;12.238;2022-11-04T23:21:58;6.70;;;4.22;;
21000;SDS011;10658;50.920;12.238;2022-11-04T23:26:38;5.13;;;3.88;;
21000;SDS011;10658;50.920;12.238;2022-11-04T23:30:43;6.05;;;3.92;;
21000;SDS011;10658;50.920;12.238;2022-11-04T23:34:49;6.50;;;4.05;;
21000;SDS011;10658;50.920;12.238;2022-11-04T23:39:09;4.07;;;3.55;;
21000;SDS011;10658;50.920;12.238;2022-11-04T23:43:10;6.95;;;4.10;;
21000;SDS011;10658;50.920;12.238;2022-11-04T23:47:10;6.82;;;4.07;;
21000;SDS011;10658;50.920;12.238;2022-11-04T23:51:37;6.10;;;4.13;;
21000;SDS011;10658;50.920;12.238;2022-11-04T23:55:57;7.15;;;4.40;;
